createdAt,value
2022-10-05T00:00:18.343Z,9.95
2022-10-05T00:01:18.426Z,9.97
2022-10-05T00:02:18.420Z,9.97
2022-10-05T00:03:18.344Z,9.97
2022-10-05T00:04:18.529Z,9.84
2022-10-05T00:05:18.572Z,9.87
2022-10-05T00:06:18.371Z,9.92
2022-10-05T00:07:18.363Z,9.92
2022-10-05T00:08:18.356Z,9.9
2022-10-05T00:09:21.483Z,9.88
2022-10-05T00:10:18.356Z,9.85
2022-10-05T00:11:18.377Z,9.81
2022-10-05T00:12:18.362Z,9.85
2022-10-05T00:13:18.362Z,9.9
2022-10-05T00:14:18.385Z,9.97
2022-10-05T00:15:18.362Z,9.97
2022-10-05T00:16:18.647Z,9.82
2022-10-05T00:17:18.391Z,9.9
2022-10-05T00:18:18.380Z,9.92
2022-10-05T00:19:18.370Z,9.88
2022-10-05T00:20:21.226Z,9.85
2022-10-05T00:21:18.389Z,9.87
2022-10-05T00:22:18.376Z,9.77
2022-10-05T00:23:18.378Z,9.87
2022-10-05T00:24:18.404Z,9.81
2022-10-05T00:25:18.488Z,9.95
2022-10-05T00:26:18.410Z,9.87
2022-10-05T00:27:18.393Z,9.87
2022-10-05T00:28:18.589Z,9.82
2022-10-05T00:29:18.458Z,9.85
2022-10-05T00:30:18.425Z,9.87
2022-10-05T00:31:21.385Z,9.8
2022-10-05T00:32:18.392Z,9.9
2022-10-05T00:33:18.418Z,9.82
2022-10-05T00:34:18.397Z,9.77
2022-10-05T00:35:18.423Z,9.87
2022-10-05T00:36:18.393Z,9.77
2022-10-05T00:37:18.396Z,9.82
2022-10-05T00:38:18.409Z,9.76
2022-10-05T00:39:18.411Z,9.87
2022-10-05T00:40:18.541Z,9.85
2022-10-05T00:41:18.565Z,9.88
2022-10-05T00:42:19.477Z,9.84
2022-10-05T00:43:18.411Z,9.81
2022-10-05T00:44:18.412Z,9.84
2022-10-05T00:45:18.412Z,9.76
2022-10-05T00:46:18.722Z,9.82
2022-10-05T00:47:21.272Z,9.8
2022-10-05T00:48:18.420Z,9.84
2022-10-05T00:49:18.444Z,9.8
2022-10-05T00:50:18.418Z,9.81
2022-10-05T00:51:18.418Z,9.94
2022-10-05T00:52:18.444Z,9.88
2022-10-05T00:53:21.319Z,9.77
2022-10-05T00:54:22.929Z,9.85
2022-10-05T00:55:18.430Z,9.81
2022-10-05T00:56:18.460Z,9.87
2022-10-05T00:57:18.491Z,9.88
2022-10-05T00:58:21.457Z,9.82
2022-10-05T00:59:18.445Z,9.74
2022-10-05T01:00:18.434Z,9.77
2022-10-05T01:01:18.722Z,9.7
2022-10-05T01:02:21.738Z,9.69
2022-10-05T01:03:18.439Z,9.7
2022-10-05T01:04:21.224Z,9.64
2022-10-05T01:05:18.473Z,9.56
2022-10-05T01:06:18.538Z,9.76
2022-10-05T01:07:18.462Z,9.73
2022-10-05T01:08:18.478Z,9.73
2022-10-05T01:09:18.439Z,9.69
2022-10-05T01:10:18.448Z,9.69
2022-10-05T01:11:18.455Z,9.76
2022-10-05T01:12:18.472Z,9.8
2022-10-05T01:13:18.498Z,9.73
2022-10-05T01:14:18.484Z,9.73
2022-10-05T01:15:18.468Z,9.77
2022-10-05T01:16:22.177Z,9.81
2022-10-05T01:17:18.481Z,9.74
2022-10-05T01:18:18.468Z,9.77
2022-10-05T01:19:18.481Z,9.76
2022-10-05T01:20:18.467Z,9.67
2022-10-05T01:21:18.492Z,9.7
2022-10-05T01:22:18.486Z,9.74
2022-10-05T01:23:18.484Z,9.7
2022-10-05T01:24:18.484Z,9.69
2022-10-05T01:25:21.453Z,9.69
2022-10-05T01:26:18.483Z,9.69
2022-10-05T01:27:18.486Z,9.64
2022-10-05T01:28:18.741Z,9.72
2022-10-05T01:29:18.535Z,9.59
2022-10-05T01:30:18.479Z,9.56
2022-10-05T01:31:18.729Z,9.63
2022-10-05T01:32:18.523Z,9.59
2022-10-05T01:33:18.492Z,9.66
2022-10-05T01:34:18.490Z,9.56
2022-10-05T01:35:18.501Z,9.54
2022-10-05T01:36:21.584Z,9.56
2022-10-05T01:37:18.526Z,9.58
2022-10-05T01:38:18.507Z,9.58
2022-10-05T01:39:18.496Z,9.64
2022-10-05T01:40:21.536Z,9.58
2022-10-05T01:41:21.278Z,9.64
2022-10-05T01:42:18.576Z,9.62
2022-10-05T01:43:18.503Z,9.54
2022-10-05T01:44:18.517Z,9.51
2022-10-05T01:45:18.545Z,9.62
2022-10-05T01:46:18.813Z,9.51
2022-10-05T01:47:18.531Z,9.42
2022-10-05T01:48:18.516Z,9.48
2022-10-05T01:49:18.515Z,9.47
2022-10-05T01:50:18.516Z,9.49
2022-10-05T01:51:18.514Z,9.51
2022-10-05T01:52:21.784Z,9.48
2022-10-05T01:53:18.524Z,9.45
2022-10-05T01:54:18.522Z,9.36
2022-10-05T01:55:18.528Z,9.36
2022-10-05T01:56:18.542Z,9.3
2022-10-05T01:57:18.542Z,9.33
2022-10-05T01:58:18.520Z,9.4
2022-10-05T01:59:18.543Z,9.3
2022-10-05T02:00:18.531Z,9.3
2022-10-05T02:01:18.845Z,9.36
2022-10-05T02:02:18.808Z,9.31
2022-10-05T02:03:21.568Z,9.31
2022-10-05T02:05:03.874Z,9.26
2022-10-05T02:05:18.537Z,9.27
2022-10-05T02:06:18.542Z,9.3
2022-10-05T02:07:18.560Z,9.31
2022-10-05T02:08:18.565Z,9.27
2022-10-05T02:09:18.545Z,9.27
2022-10-05T02:10:18.545Z,9.21
2022-10-05T02:11:18.556Z,9.22
2022-10-05T02:12:18.556Z,9.29
2022-10-05T02:13:18.573Z,9.31
2022-10-05T02:14:21.365Z,9.31
2022-10-05T02:15:18.553Z,9.22
2022-10-05T02:16:18.848Z,9.27
2022-10-05T02:17:18.755Z,9.33
2022-10-05T02:18:18.404Z,9.34
2022-10-05T02:19:18.555Z,9.31
2022-10-05T02:20:18.606Z,9.31
2022-10-05T02:21:18.560Z,9.26
2022-10-05T02:22:18.575Z,9.36
2022-10-05T02:23:18.654Z,9.22
2022-10-05T02:24:18.590Z,9.24
2022-10-05T02:25:19.627Z,9.29
2022-10-05T02:26:18.571Z,9.26
2022-10-05T02:27:18.583Z,9.22
2022-10-05T02:28:18.865Z,9.21
2022-10-05T02:29:18.714Z,9.24
2022-10-05T02:30:21.286Z,9.15
2022-10-05T02:31:18.820Z,9.16
2022-10-05T02:32:18.606Z,9.11
2022-10-05T02:33:18.663Z,9
2022-10-05T02:34:18.586Z,9.15
2022-10-05T02:35:18.582Z,8.97
2022-10-05T02:36:21.348Z,8.96
2022-10-05T02:37:18.601Z,9
2022-10-05T02:38:18.581Z,8.95
2022-10-05T02:39:18.591Z,8.93
2022-10-05T02:40:18.740Z,8.89
2022-10-05T02:41:18.584Z,8.87
2022-10-05T02:42:18.610Z,8.86
2022-10-05T02:43:18.593Z,8.84
2022-10-05T02:44:18.606Z,8.87
2022-10-05T02:45:18.585Z,8.96
2022-10-05T02:46:18.993Z,8.81
2022-10-05T02:47:21.683Z,8.78
2022-10-05T02:48:18.599Z,8.86
2022-10-05T02:49:18.650Z,8.82
2022-10-05T02:50:18.651Z,8.79
2022-10-05T02:51:18.606Z,8.79
2022-10-05T02:52:18.613Z,8.77
2022-10-05T02:53:18.612Z,8.89
2022-10-05T02:54:18.611Z,8.75
2022-10-05T02:55:18.604Z,8.89
2022-10-05T02:56:18.649Z,8.81
2022-10-05T02:57:18.619Z,8.79
2022-10-05T02:58:21.506Z,8.72
2022-10-05T02:59:18.607Z,8.82
2022-10-05T03:00:18.615Z,8.71
2022-10-05T03:01:18.786Z,8.77
2022-10-05T03:02:18.829Z,8.75
2022-10-05T03:03:18.624Z,8.69
2022-10-05T03:04:18.626Z,8.68
2022-10-05T03:05:18.681Z,8.77
2022-10-05T03:06:18.625Z,8.81
2022-10-05T03:07:18.777Z,8.74
2022-10-05T03:08:18.630Z,8.72
2022-10-05T03:09:21.394Z,8.68
2022-10-05T03:10:18.632Z,8.75
2022-10-05T03:11:18.638Z,8.74
2022-10-05T03:12:18.685Z,8.74
2022-10-05T03:13:18.637Z,8.72
2022-10-05T03:14:18.659Z,8.81
2022-10-05T03:15:18.661Z,8.84
2022-10-05T03:16:19.182Z,8.79
2022-10-05T03:17:18.633Z,8.89
2022-10-05T03:18:18.642Z,8.87
2022-10-05T03:19:18.645Z,8.87
2022-10-05T03:20:21.433Z,8.87
2022-10-05T03:21:18.676Z,8.87
2022-10-05T03:22:18.643Z,8.82
2022-10-05T03:23:18.653Z,8.9
2022-10-05T03:24:18.658Z,8.79
2022-10-05T03:25:21.436Z,8.79
2022-10-05T03:26:18.651Z,8.79
2022-10-05T03:27:18.660Z,8.77
2022-10-05T03:28:18.904Z,8.77
2022-10-05T03:29:18.716Z,8.81
2022-10-05T03:30:18.658Z,8.66
2022-10-05T03:31:18.947Z,8.64
2022-10-05T03:32:18.669Z,8.79
2022-10-05T03:33:18.662Z,8.72
2022-10-05T03:34:18.751Z,8.71
2022-10-05T03:35:18.686Z,8.77
2022-10-05T03:36:18.765Z,8.71
2022-10-05T03:37:18.701Z,8.63
2022-10-05T03:38:18.719Z,8.74
2022-10-05T03:39:18.688Z,8.75
2022-10-05T03:40:18.836Z,8.72
2022-10-05T03:41:18.695Z,8.69
2022-10-05T03:42:18.670Z,8.71
2022-10-05T03:43:18.679Z,8.75
2022-10-05T03:44:18.710Z,8.69
2022-10-05T03:45:18.682Z,8.68
2022-10-05T03:46:18.885Z,8.63
2022-10-05T03:47:18.717Z,8.59
2022-10-05T03:48:18.687Z,8.56
2022-10-05T03:49:18.731Z,8.49
2022-10-05T03:50:18.691Z,8.45
2022-10-05T03:51:18.716Z,8.44
2022-10-05T03:52:21.519Z,8.49
2022-10-05T03:53:18.731Z,8.39
2022-10-05T03:54:18.685Z,8.42
2022-10-05T03:55:18.700Z,8.49
2022-10-05T03:56:18.707Z,8.52
2022-10-05T03:57:18.704Z,8.49
2022-10-05T03:58:18.740Z,8.6
2022-10-05T03:59:18.719Z,8.45
2022-10-05T04:00:18.726Z,8.39
2022-10-05T04:01:18.895Z,8.46
2022-10-05T04:02:18.963Z,8.39
2022-10-05T04:03:21.540Z,8.41
2022-10-05T04:04:18.714Z,8.46
2022-10-05T04:05:18.723Z,8.39
2022-10-05T04:06:18.710Z,8.5
2022-10-05T04:07:21.235Z,8.54
2022-10-05T04:08:20.746Z,8.52
2022-10-05T04:09:21.509Z,8.46
2022-10-05T04:10:18.739Z,8.39
2022-10-05T04:11:18.735Z,8.53
2022-10-05T04:12:18.721Z,8.53
2022-10-05T04:13:18.744Z,8.49
2022-10-05T04:14:18.720Z,8.63
2022-10-05T04:15:23.431Z,8.66
2022-10-05T04:16:18.930Z,8.66
2022-10-05T04:17:18.800Z,8.63
2022-10-05T04:18:18.760Z,8.59
2022-10-05T04:19:22.008Z,8.53
2022-10-05T04:20:18.774Z,8.52
2022-10-05T04:21:24.163Z,8.52
2022-10-05T04:22:18.760Z,8.61
2022-10-05T04:23:18.779Z,8.52
2022-10-05T04:24:18.790Z,8.49
2022-10-05T04:25:18.746Z,8.45
2022-10-05T04:26:18.742Z,8.38
2022-10-05T04:27:18.747Z,8.32
2022-10-05T04:28:18.978Z,8.34
2022-10-05T04:29:18.788Z,8.42
2022-10-05T04:30:21.890Z,8.49
2022-10-05T04:31:18.979Z,8.35
2022-10-05T04:32:18.747Z,8.39
2022-10-05T04:33:21.602Z,8.34
2022-10-05T04:34:18.811Z,8.42
2022-10-05T04:35:18.762Z,8.46
2022-10-05T04:36:18.771Z,8.44
2022-10-05T04:37:18.590Z,8.54
2022-10-05T04:38:18.774Z,8.45
2022-10-05T04:39:18.756Z,8.45
2022-10-05T04:40:18.957Z,8.53
2022-10-05T04:41:21.770Z,8.46
2022-10-05T04:42:18.785Z,8.39
2022-10-05T04:43:18.804Z,8.42
2022-10-05T04:44:18.781Z,8.41
2022-10-05T04:45:18.798Z,8.52
2022-10-05T04:46:19.016Z,8.56
2022-10-05T04:47:18.828Z,8.52
2022-10-05T04:48:18.803Z,8.49
2022-10-05T04:49:18.776Z,8.53
2022-10-05T04:50:18.817Z,8.53
2022-10-05T04:51:18.816Z,8.45
2022-10-05T04:52:19.876Z,8.46
2022-10-05T04:53:18.632Z,8.45
2022-10-05T04:54:18.796Z,8.35
2022-10-05T04:55:18.807Z,8.41
2022-10-05T04:56:18.956Z,8.36
2022-10-05T04:57:18.818Z,8.38
2022-10-05T04:58:18.855Z,8.38
2022-10-05T04:59:18.819Z,8.53
2022-10-05T05:00:18.807Z,8.57
2022-10-05T05:01:18.997Z,8.49
2022-10-05T05:02:18.648Z,8.52
2022-10-05T05:03:20.552Z,8.54
2022-10-05T05:04:18.949Z,8.57
2022-10-05T05:05:18.815Z,8.56
2022-10-05T05:06:23.046Z,8.5
2022-10-05T05:07:18.836Z,8.52
2022-10-05T05:08:18.837Z,8.5
2022-10-05T05:09:18.840Z,8.41
2022-10-05T05:10:18.803Z,8.39
2022-10-05T05:11:26.770Z,8.36
2022-10-05T05:12:18.840Z,8.35
2022-10-05T05:13:18.874Z,8.32
2022-10-05T05:14:21.613Z,8.35
2022-10-05T05:15:18.816Z,8.34
2022-10-05T05:16:19.083Z,8.31
2022-10-05T05:17:18.819Z,8.36
2022-10-05T05:18:18.852Z,8.31
2022-10-05T05:19:18.857Z,8.32
2022-10-05T05:20:18.833Z,8.31
2022-10-05T05:21:18.829Z,8.28
2022-10-05T05:22:18.847Z,8.26
2022-10-05T05:23:18.871Z,8.27
2022-10-05T05:24:18.831Z,8.31
2022-10-05T05:25:21.850Z,8.42
2022-10-05T05:26:18.837Z,8.35
2022-10-05T05:27:18.854Z,8.38
2022-10-05T05:28:18.948Z,8.31
2022-10-05T05:29:18.860Z,8.26
2022-10-05T05:30:18.832Z,8.21
2022-10-05T05:31:19.071Z,8.24
2022-10-05T05:32:18.848Z,8.17
2022-10-05T05:33:19.338Z,8.2
2022-10-05T05:34:18.922Z,8.17
2022-10-05T05:35:18.878Z,8.2
2022-10-05T05:36:24.447Z,8.16
2022-10-05T05:37:18.840Z,8.11
2022-10-05T05:38:18.845Z,8.23
2022-10-05T05:39:18.839Z,8.26
2022-10-05T05:40:18.886Z,8.16
2022-10-05T05:41:21.776Z,8.11
2022-10-05T05:42:18.857Z,8.18
2022-10-05T05:43:18.741Z,8.2
2022-10-05T05:44:18.902Z,8.26
2022-10-05T05:45:18.895Z,8.18
2022-10-05T05:46:19.000Z,8.31
2022-10-05T05:47:20.290Z,8.27
2022-10-05T05:48:18.861Z,8.24
2022-10-05T05:49:18.878Z,8.2
2022-10-05T05:50:18.891Z,8.24
2022-10-05T05:51:18.910Z,8.35
2022-10-05T05:52:21.759Z,8.26
2022-10-05T05:53:18.868Z,8.32
2022-10-05T05:54:18.889Z,8.31
2022-10-05T05:55:18.890Z,8.26
2022-10-05T05:56:19.006Z,8.34
2022-10-05T05:57:18.876Z,8.26
2022-10-05T05:58:18.893Z,8.28
2022-10-05T05:59:18.902Z,8.38
2022-10-05T06:00:18.926Z,8.35
2022-10-05T06:01:39.528Z,8.45
2022-10-05T06:02:19.303Z,8.45
2022-10-05T06:03:19.269Z,8.54
2022-10-05T06:04:18.911Z,8.5
2022-10-05T06:05:18.920Z,8.53
2022-10-05T06:06:18.907Z,8.6
2022-10-05T06:07:19.028Z,8.71
2022-10-05T06:08:18.910Z,8.72
2022-10-05T06:09:18.901Z,8.75
2022-10-05T06:10:18.893Z,8.81
2022-10-05T06:11:18.897Z,8.79
2022-10-05T06:12:21.994Z,8.78
2022-10-05T06:13:18.902Z,8.78
2022-10-05T06:14:18.896Z,8.93
2022-10-05T06:15:18.945Z,8.87
2022-10-05T06:16:19.107Z,8.99
2022-10-05T06:17:18.905Z,8.96
2022-10-05T06:18:22.116Z,8.96
2022-10-05T06:19:22.108Z,8.93
2022-10-05T06:20:18.908Z,9.02
2022-10-05T06:21:18.911Z,9.08
2022-10-05T06:22:18.912Z,9.16
2022-10-05T06:23:18.955Z,9.15
2022-10-05T06:24:18.959Z,9.21
2022-10-05T06:25:18.913Z,9.27
2022-10-05T06:26:18.965Z,9.31
2022-10-05T06:27:18.926Z,9.4
2022-10-05T06:28:19.134Z,9.45
2022-10-05T06:29:18.966Z,9.51
2022-10-05T06:30:21.735Z,9.66
2022-10-05T06:31:19.022Z,9.72
2022-10-05T06:32:19.002Z,9.77
2022-10-05T06:33:18.944Z,9.81
2022-10-05T06:34:20.911Z,9.91
2022-10-05T06:35:20.055Z,9.87
2022-10-05T06:36:18.927Z,10
2022-10-05T06:37:18.934Z,10.07
2022-10-05T06:38:18.940Z,10.06
2022-10-05T06:39:19.049Z,10.21
2022-10-05T06:40:18.967Z,10.28
2022-10-05T06:41:18.952Z,10.23
2022-10-05T06:42:18.965Z,10.34
2022-10-05T06:43:18.962Z,10.42
2022-10-05T06:44:18.974Z,10.55
2022-10-05T06:45:20.004Z,10.46
2022-10-05T06:46:22.603Z,10.58
2022-10-05T06:47:18.958Z,10.55
2022-10-05T06:48:18.978Z,10.59
2022-10-05T06:49:18.971Z,10.71
2022-10-05T06:50:18.949Z,10.76
2022-10-05T06:51:18.959Z,10.84
2022-10-05T06:52:18.954Z,10.87
2022-10-05T06:53:18.959Z,10.9
2022-10-05T06:54:18.982Z,11.02
2022-10-05T06:55:19.157Z,11.08
2022-10-05T06:56:18.965Z,11.25
2022-10-05T06:57:21.989Z,11.34
2022-10-05T06:58:18.968Z,11.56
2022-10-05T06:59:19.011Z,11.56
2022-10-05T07:00:18.967Z,11.56
2022-10-05T07:01:19.279Z,11.71
2022-10-05T07:02:19.205Z,11.73
2022-10-05T07:03:18.978Z,11.71
2022-10-05T07:04:19.034Z,11.81
2022-10-05T07:05:19.099Z,11.95
2022-10-05T07:06:20.137Z,12.03
2022-10-05T07:07:18.990Z,12.02
2022-10-05T07:08:21.824Z,12.03
2022-10-05T07:09:19.761Z,12
2022-10-05T07:10:18.993Z,12.14
2022-10-05T07:11:19.122Z,12.23
2022-10-05T07:12:19.003Z,12.33
2022-10-05T07:13:19.006Z,12.18
2022-10-05T07:14:19.015Z,12.33
2022-10-05T07:15:18.985Z,12.36
2022-10-05T07:16:19.171Z,12.39
2022-10-05T07:17:19.177Z,12.58
2022-10-05T07:18:19.025Z,12.78
2022-10-05T07:19:20.173Z,12.87
2022-10-05T07:20:19.032Z,12.9
2022-10-05T07:21:18.998Z,13.01
2022-10-05T07:22:19.008Z,13.09
2022-10-05T07:23:19.074Z,13.13
2022-10-05T07:24:19.034Z,13.46
2022-10-05T07:25:19.016Z,13.67
2022-10-05T07:26:19.018Z,13.75
2022-10-05T07:27:19.057Z,13.93
2022-10-05T07:28:19.277Z,14.05
2022-10-05T07:29:19.021Z,14.26
2022-10-05T07:30:22.034Z,14.25
2022-10-05T07:31:19.339Z,14.43
2022-10-05T07:32:19.014Z,14.51
2022-10-05T07:33:19.030Z,14.77
2022-10-05T07:34:19.086Z,14.93
2022-10-05T07:35:19.057Z,14.97
2022-10-05T07:36:19.050Z,15.45
2022-10-05T07:37:19.024Z,15.44
2022-10-05T07:38:19.103Z,15.48
2022-10-05T07:39:19.805Z,15.48
2022-10-05T07:40:19.084Z,15.62
2022-10-05T07:41:22.099Z,15.67
2022-10-05T07:42:19.042Z,15.72
2022-10-05T07:43:19.062Z,15.81
2022-10-05T07:44:19.046Z,15.84
2022-10-05T07:45:19.064Z,15.85
2022-10-05T07:46:19.279Z,15.87
2022-10-05T07:47:19.040Z,15.94
2022-10-05T07:48:19.046Z,16.09
2022-10-05T07:49:19.056Z,15.98
2022-10-05T07:50:19.174Z,16.06
2022-10-05T07:51:19.060Z,16.25
2022-10-05T07:52:22.192Z,16.1
2022-10-05T07:53:19.065Z,16.12
2022-10-05T07:54:19.072Z,16.16
2022-10-05T07:55:19.110Z,16.26
2022-10-05T07:56:19.061Z,16.28
2022-10-05T07:57:19.071Z,16.43
2022-10-05T07:58:19.074Z,16.37
2022-10-05T07:59:19.099Z,16.61
2022-10-05T08:00:19.210Z,16.68
2022-10-05T08:01:19.096Z,16.79
2022-10-05T08:02:19.592Z,16.87
2022-10-05T08:03:22.346Z,16.98
2022-10-05T08:04:19.087Z,17.04
2022-10-05T08:05:19.088Z,16.95
2022-10-05T08:06:19.150Z,16.92
2022-10-05T08:07:19.342Z,16.99
2022-10-05T08:08:22.893Z,16.97
2022-10-05T08:09:19.140Z,17.02
2022-10-05T08:10:19.089Z,16.99
2022-10-05T08:11:19.112Z,17.14
2022-10-05T08:12:19.191Z,17.14
2022-10-05T08:13:19.113Z,17.12
2022-10-05T08:14:21.857Z,17.12
2022-10-05T08:15:19.136Z,17.09
2022-10-05T08:16:19.528Z,17.12
2022-10-05T08:17:21.662Z,17.1
2022-10-05T08:18:19.106Z,17.22
2022-10-05T08:19:22.108Z,17.14
2022-10-05T08:20:19.128Z,17.2
2022-10-05T08:21:19.109Z,17.28
2022-10-05T08:22:19.198Z,17.53
2022-10-05T08:23:19.112Z,17.53
2022-10-05T08:24:19.139Z,17.54
2022-10-05T08:25:19.153Z,17.66
2022-10-05T08:26:19.125Z,17.57
2022-10-05T08:27:19.117Z,17.57
2022-10-05T08:28:19.259Z,17.73
2022-10-05T08:29:19.127Z,17.68
2022-10-05T08:30:19.152Z,17.54
2022-10-05T08:31:19.488Z,17.66
2022-10-05T08:32:19.125Z,17.72
2022-10-05T08:33:19.136Z,17.88
2022-10-05T08:34:19.132Z,17.87
2022-10-05T08:35:19.155Z,17.8
2022-10-05T08:36:19.172Z,18.05
2022-10-05T08:37:19.137Z,18.11
2022-10-05T08:38:19.196Z,18.05
2022-10-05T08:39:19.160Z,18.02
2022-10-05T08:40:19.186Z,18.11
2022-10-05T08:41:19.188Z,18.16
2022-10-05T08:42:19.139Z,18.11
2022-10-05T08:43:19.202Z,18.37
2022-10-05T08:44:19.148Z,18.31
2022-10-05T08:45:19.202Z,18.43
2022-10-05T08:46:22.223Z,18.57
2022-10-05T08:47:19.179Z,18.61
2022-10-05T08:48:19.162Z,18.71
2022-10-05T08:49:19.163Z,18.81
2022-10-05T08:50:19.254Z,18.82
2022-10-05T08:51:19.150Z,18.94
2022-10-05T08:52:19.158Z,19.12
2022-10-05T08:53:19.162Z,19.15
2022-10-05T08:54:19.187Z,19.23
2022-10-05T08:55:19.187Z,19.17
2022-10-05T08:56:29.110Z,19.2
2022-10-05T08:57:22.243Z,19.42
2022-10-05T08:58:19.520Z,19.56
2022-10-05T08:59:19.177Z,19.45
2022-10-05T09:00:19.232Z,19.64
2022-10-05T09:01:19.403Z,19.7
2022-10-05T09:02:22.345Z,19.71
2022-10-05T09:03:19.193Z,19.85
2022-10-05T09:04:19.185Z,19.87
2022-10-05T09:05:19.197Z,19.79
2022-10-05T09:06:19.182Z,20.03
2022-10-05T09:07:19.186Z,20.02
2022-10-05T09:08:22.011Z,20.24
2022-10-05T09:09:19.189Z,20.21
2022-10-05T09:10:19.288Z,20.22
2022-10-05T09:11:19.194Z,20.36
2022-10-05T09:12:19.226Z,20.36
2022-10-05T09:13:22.037Z,20.34
2022-10-05T09:14:19.211Z,20.48
2022-10-05T09:15:30.248Z,20.56
2022-10-05T09:16:19.483Z,20.74
2022-10-05T09:17:19.201Z,20.73
2022-10-05T09:18:19.228Z,20.82
2022-10-05T09:19:22.001Z,20.9
2022-10-05T09:20:19.317Z,20.78
2022-10-05T09:21:19.212Z,20.82
2022-10-05T09:22:19.251Z,20.8
2022-10-05T09:23:19.222Z,20.86
2022-10-05T09:24:22.098Z,20.56
2022-10-05T09:25:19.247Z,20.74
2022-10-05T09:26:19.277Z,20.74
2022-10-05T09:27:19.237Z,20.77
2022-10-05T09:28:19.536Z,20.71
2022-10-05T09:29:19.230Z,20.82
2022-10-05T09:30:19.346Z,20.6
2022-10-05T09:31:19.446Z,20.39
2022-10-05T09:32:21.225Z,20.42
2022-10-05T09:33:19.236Z,20.59
2022-10-05T09:34:19.298Z,20.46
2022-10-05T09:35:22.272Z,20.56
2022-10-05T09:36:19.316Z,20.52
2022-10-05T09:37:19.247Z,20.21
2022-10-05T09:38:19.256Z,20.37
2022-10-05T09:39:19.282Z,20.5
2022-10-05T09:40:19.464Z,20.48
2022-10-05T09:41:19.253Z,20.6
2022-10-05T09:42:19.311Z,20.82
2022-10-05T09:43:19.458Z,20.82
2022-10-05T09:44:19.336Z,20.92
2022-10-05T09:45:25.637Z,20.88
2022-10-05T09:46:22.440Z,21.04
2022-10-05T09:47:19.267Z,21.07
2022-10-05T09:48:19.262Z,21.03
2022-10-05T09:49:19.384Z,21.03
2022-10-05T09:50:19.467Z,21.03
2022-10-05T09:51:19.270Z,21.19
2022-10-05T09:52:26.346Z,21.11
2022-10-05T09:53:19.269Z,21
2022-10-05T09:54:19.276Z,21.03
2022-10-05T09:55:19.296Z,21.25
2022-10-05T09:56:19.435Z,21.22
2022-10-05T09:57:22.220Z,21.38
2022-10-05T09:58:19.291Z,21.56
2022-10-05T09:59:19.275Z,21.53
2022-10-05T10:00:19.607Z,21.48
2022-10-05T10:01:37.559Z,21.32
2022-10-05T10:02:19.806Z,21.3
2022-10-05T10:03:19.435Z,21.38
2022-10-05T10:04:19.292Z,21.3
2022-10-05T10:05:19.321Z,21.53
2022-10-05T10:06:19.312Z,21.54
2022-10-05T10:07:19.296Z,21.74
2022-10-05T10:08:22.052Z,21.51
2022-10-05T10:09:19.300Z,21.68
2022-10-05T10:10:19.386Z,21.85
2022-10-05T10:11:19.301Z,21.88
2022-10-05T10:12:19.325Z,21.77
2022-10-05T10:13:19.341Z,21.69
2022-10-05T10:14:19.339Z,21.96
2022-10-05T10:15:19.428Z,21.78
2022-10-05T10:16:19.660Z,22.06
2022-10-05T10:17:19.329Z,21.99
2022-10-05T10:18:19.319Z,21.94
2022-10-05T10:19:22.318Z,22.03
2022-10-05T10:20:19.491Z,22.01
2022-10-05T10:21:19.324Z,22.18
2022-10-05T10:22:19.342Z,22.23
2022-10-05T10:23:19.332Z,22.16
2022-10-05T10:24:19.351Z,22.08
2022-10-05T10:25:19.362Z,22.21
2022-10-05T10:26:19.331Z,22.28
2022-10-05T10:27:19.327Z,22.08
2022-10-05T10:28:19.582Z,22.25
2022-10-05T10:29:19.561Z,22.22
2022-10-05T10:30:23.179Z,22.41
2022-10-05T10:31:19.533Z,22.4
2022-10-05T10:32:19.374Z,22.49
2022-10-05T10:33:19.358Z,22.67
2022-10-05T10:34:19.341Z,22.73
2022-10-05T10:35:19.748Z,22.78
2022-10-05T10:36:19.347Z,22.77
2022-10-05T10:37:19.349Z,22.92
2022-10-05T10:38:19.384Z,22.98
2022-10-05T10:39:19.437Z,22.98
2022-10-05T10:40:19.416Z,23.07
2022-10-05T10:41:22.464Z,22.96
2022-10-05T10:42:22.624Z,23.01
2022-10-05T10:43:19.360Z,23.17
2022-10-05T10:44:19.391Z,23.07
2022-10-05T10:45:19.470Z,23.16
2022-10-05T10:46:22.850Z,22.98
2022-10-05T10:48:19.474Z,23.1
2022-10-05T10:49:19.381Z,22.91
2022-10-05T10:50:19.405Z,23.06
2022-10-05T10:51:19.383Z,22.89
2022-10-05T10:52:19.374Z,23.04
2022-10-05T10:53:19.403Z,23.1
2022-10-05T10:54:19.400Z,23.18
2022-10-05T10:55:19.422Z,23.1
2022-10-05T10:56:19.393Z,23.17
2022-10-05T10:57:19.393Z,23.07
2022-10-05T10:58:21.020Z,22.99
2022-10-05T10:59:19.401Z,23.06
2022-10-05T11:00:19.516Z,23.11
2022-10-05T11:01:19.680Z,23.08
2022-10-05T11:02:19.825Z,23.11
2022-10-05T11:03:19.537Z,23.23
2022-10-05T11:04:19.431Z,23.36
2022-10-05T11:05:19.421Z,23.36
2022-10-05T11:06:19.459Z,23.21
2022-10-05T11:07:19.410Z,23.26
2022-10-05T11:08:19.401Z,23.08
2022-10-05T11:09:19.452Z,23.06
2022-10-05T11:10:19.564Z,23.25
2022-10-05T11:11:19.460Z,23.42
2022-10-05T11:12:19.613Z,23.44
2022-10-05T11:13:22.561Z,23.34
2022-10-05T11:14:19.425Z,23.29
2022-10-05T11:15:19.444Z,23.21
2022-10-05T11:16:24.090Z,23.39
2022-10-05T11:17:19.437Z,23.47
2022-10-05T11:18:19.424Z,23.36
2022-10-05T11:19:19.429Z,23.56
2022-10-05T11:20:19.678Z,23.73
2022-10-05T11:21:19.430Z,23.62
2022-10-05T11:22:19.424Z,23.58
2022-10-05T11:23:19.444Z,23.69
2022-10-05T11:24:22.201Z,23.64
2022-10-05T11:25:19.451Z,23.73
2022-10-05T11:26:19.488Z,23.73
2022-10-05T11:27:19.649Z,23.59
2022-10-05T11:28:19.624Z,23.45
2022-10-05T11:29:22.513Z,23.67
2022-10-05T11:30:19.632Z,23.64
2022-10-05T11:31:19.617Z,23.45
2022-10-05T11:32:19.477Z,23.48
2022-10-05T11:33:19.461Z,23.48
2022-10-05T11:34:19.456Z,23.4
2022-10-05T11:35:22.516Z,23.4
2022-10-05T11:36:19.474Z,23.39
2022-10-05T11:37:19.469Z,23.26
2022-10-05T11:38:19.455Z,23.08
2022-10-05T11:39:19.484Z,23.28
2022-10-05T11:40:21.123Z,23.45
2022-10-05T11:41:19.502Z,23.28
2022-10-05T11:42:19.517Z,23.13
2022-10-05T11:43:19.469Z,23.28
2022-10-05T11:44:19.478Z,23.4
2022-10-05T11:45:22.567Z,23.51
2022-10-05T11:46:19.614Z,23.51
2022-10-05T11:47:19.519Z,23.21
2022-10-05T11:48:19.515Z,23.26
2022-10-05T11:49:19.543Z,23.21
2022-10-05T11:50:19.520Z,23.14
2022-10-05T11:51:28.703Z,23.07
2022-10-05T11:52:19.496Z,23.18
2022-10-05T11:53:19.336Z,23.18
2022-10-05T11:54:19.497Z,23.25
2022-10-05T11:55:19.583Z,23.13
2022-10-05T11:56:19.600Z,23.14
2022-10-05T11:57:19.584Z,23.25
2022-10-05T11:58:19.524Z,23.34
2022-10-05T11:59:19.496Z,23.25
2022-10-05T12:00:19.524Z,23.29
2022-10-05T12:01:19.536Z,23.44
2022-10-05T12:02:22.574Z,23.28
2022-10-05T12:03:19.945Z,22.93
2022-10-05T12:04:19.670Z,23.07
2022-10-05T12:05:19.537Z,23.11
2022-10-05T12:06:19.524Z,23.2
2022-10-05T12:07:19.566Z,23.36
2022-10-05T12:08:19.515Z,23.37
2022-10-05T12:09:19.522Z,23.28
2022-10-05T12:10:19.772Z,23.44
2022-10-05T12:11:19.538Z,23.55
2022-10-05T12:12:19.518Z,23.51
2022-10-05T12:13:22.681Z,23.36
2022-10-05T12:14:19.527Z,23.44
2022-10-05T12:15:19.403Z,23.58
2022-10-05T12:16:19.715Z,23.69
2022-10-05T12:17:19.710Z,23.69
2022-10-05T12:18:19.539Z,23.73
2022-10-05T12:19:19.542Z,23.76
2022-10-05T12:20:19.611Z,23.79
2022-10-05T12:21:19.537Z,23.94
2022-10-05T12:22:19.617Z,23.89
2022-10-05T12:23:19.574Z,23.96
2022-10-05T12:24:26.624Z,23.94
2022-10-05T12:25:19.662Z,24.1
2022-10-05T12:26:19.557Z,24.1
2022-10-05T12:27:19.564Z,24.09
2022-10-05T12:28:19.728Z,24.18
2022-10-05T12:29:19.833Z,24.11
2022-10-05T12:30:19.594Z,24.19
2022-10-05T12:31:19.925Z,24.13
2022-10-05T12:32:19.561Z,24.24
2022-10-05T12:33:19.588Z,24.1
2022-10-05T12:34:19.569Z,24.14
2022-10-05T12:35:48.632Z,24.11
2022-10-05T12:36:19.574Z,24.22
2022-10-05T12:37:19.596Z,24.18
2022-10-05T12:38:19.571Z,24.24
2022-10-05T12:39:19.600Z,24.37
2022-10-05T12:40:19.582Z,24.36
2022-10-05T12:41:19.585Z,24.44
2022-10-05T12:42:19.594Z,24.37
2022-10-05T12:43:19.617Z,24.46
2022-10-05T12:44:19.818Z,24.41
2022-10-05T12:45:19.649Z,24.47
2022-10-05T12:46:22.660Z,24.29
2022-10-05T12:47:19.592Z,24.13
2022-10-05T12:48:19.603Z,24.29
2022-10-05T12:49:19.669Z,24.29
2022-10-05T12:50:19.656Z,24.19
2022-10-05T12:51:19.464Z,24.14
2022-10-05T12:52:19.601Z,24.19
2022-10-05T12:53:19.605Z,24.21
2022-10-05T12:54:19.598Z,24.07
2022-10-05T12:55:19.643Z,24.06
2022-10-05T12:56:19.904Z,24.04
2022-10-05T12:57:22.381Z,24.11
2022-10-05T12:58:19.610Z,24.1
2022-10-05T12:59:19.607Z,24.1
2022-10-05T13:00:25.447Z,24.14
2022-10-05T13:01:19.760Z,24.11
2022-10-05T13:02:19.814Z,23.89
2022-10-05T13:03:19.662Z,24.07
2022-10-05T13:04:19.628Z,24.18
2022-10-05T13:05:19.619Z,24.26
2022-10-05T13:06:20.093Z,24.37
2022-10-05T13:07:19.660Z,24.24
2022-10-05T13:08:22.265Z,24.11